sensor_id;sensor_type;location;lat;lon;timestamp;P1;durP1;ratioP1;P2;durP2;ratioP2
3637;SDS011;1835;50.068;8.154;2022-10-22T00:01:03;17.77;;;5.90;;
3637;SDS011;1835;50.068;8.154;2022-10-22T00:03:31;11.10;;;6.40;;
3637;SDS011;1835;50.068;8.154;2022-10-22T00:06:00;25.53;;;7.17;;
3637;SDS011;1835;50.068;8.154;2022-10-22T00:08:28;18.37;;;8.20;;
3637;SDS011;1835;50.068;8.154;2022-10-22T00:10:56;20.67;;;8.97;;
3637;SDS011;1835;50.068;8.154;2022-10-22T00:13:24;18.03;;;7.47;;
3637;SDS011;1835;50.068;8.154;2022-10-22T00:15:53;10.63;;;6.60;;
3637;SDS011;1835;50.068;8.154;2022-10-22T00:18:21;14.43;;;6.97;;
3637;SDS011;1835;50.068;8.154;2022-10-22T00:20:49;16.67;;;8.23;;
3637;SDS011;1835;50.068;8.154;2022-10-22T00:23:17;15.63;;;7.87;;
3637;SDS011;1835;50.068;8.154;2022-10-22T00:25:45;15.43;;;8.30;;
3637;SDS011;1835;50.068;8.154;2022-10-22T00:28:14;14.93;;;8.40;;
3637;SDS011;1835;50.068;8.154;2022-10-22T00:30:42;12.03;;;7.13;;
3637;SDS011;1835;50.068;8.154;2022-10-22T00:33:11;17.23;;;7.17;;
3637;SDS011;1835;50.068;8.154;2022-10-22T00:35:39;22.70;;;8.43;;
3637;SDS011;1835;50.068;8.154;2022-10-22T00:38:07;11.93;;;6.67;;
3637;SDS011;1835;50.068;8.154;2022-10-22T00:40:35;11.10;;;6.60;;
3637;SDS011;1835;50.068;8.154;2022-10-22T00:43:03;18.40;;;6.73;;
3637;SDS011;1835;50.068;8.154;2022-10-22T00:45:31;14.57;;;7.33;;
3637;SDS011;1835;50.068;8.154;2022-10-22T00:48:00;20.07;;;8.03;;
3637;SDS011;1835;50.068;8.154;2022-10-22T00:50:34;22.07;;;7.97;;
3637;SDS011;1835;50.068;8.154;2022-10-22T00:53:07;27.40;;;6.80;;
3637;SDS011;1835;50.068;8.154;2022-10-22T00:55:40;22.67;;;6.90;;
3637;SDS011;1835;50.068;8.154;2022-10-22T00:58:10;15.10;;;7.40;;
3637;SDS011;1835;50.068;8.154;2022-10-22T01:00:39;16.10;;;6.90;;
3637;SDS011;1835;50.068;8.154;2022-10-22T01:03:08;26.10;;;8.07;;
3637;SDS011;1835;50.068;8.154;2022-10-22T01:05:40;16.83;;;7.50;;
3637;SDS011;1835;50.068;8.154;2022-10-22T01:08:17;17.27;;;7.37;;
3637;SDS011;1835;50.068;8.154;2022-10-22T01:10:53;24.20;;;6.93;;
3637;SDS011;1835;50.068;8.154;2022-10-22T01:13:36;23.83;;;8.40;;
3637;SDS011;1835;50.068;8.154;2022-10-22T01:16:16;20.33;;;7.47;;
3637;SDS011;1835;50.068;8.154;2022-10-22T01:18:50;14.93;;;7.77;;
3637;SDS011;1835;50.068;8.154;2022-10-22T01:21:29;18.23;;;7.53;;
3637;SDS011;1835;50.068;8.154;2022-10-22T01:24:10;11.73;;;6.80;;
3637;SDS011;1835;50.068;8.154;2022-10-22T01:27:05;15.60;;;7.70;;
3637;SDS011;1835;50.068;8.154;2022-10-22T01:29:47;26.33;;;8.93;;
3637;SDS011;1835;50.068;8.154;2022-10-22T01:32:19;16.57;;;7.77;;
3637;SDS011;1835;50.068;8.154;2022-10-22T01:34:51;15.47;;;8.73;;
3637;SDS011;1835;50.068;8.154;2022-10-22T01:37:23;20.70;;;8.80;;
3637;SDS011;1835;50.068;8.154;2022-10-22T01:39:57;30.70;;;8.57;;
3637;SDS011;1835;50.068;8.154;2022-10-22T01:42:27;15.13;;;8.40;;
3637;SDS011;1835;50.068;8.154;2022-10-22T01:44:56;21.70;;;7.80;;
3637;SDS011;1835;50.068;8.154;2022-10-22T01:47:28;11.47;;;7.80;;
3637;SDS011;1835;50.068;8.154;2022-10-22T01:50:18;21.93;;;8.30;;
3637;SDS011;1835;50.068;8.154;2022-10-22T01:53:06;22.63;;;8.40;;
3637;SDS011;1835;50.068;8.154;2022-10-22T01:55:49;14.00;;;7.80;;
3637;SDS011;1835;50.068;8.154;2022-10-22T01:58:36;21.60;;;8.40;;
3637;SDS011;1835;50.068;8.154;2022-10-22T02:01:14;21.53;;;9.00;;
3637;SDS011;1835;50.068;8.154;2022-10-22T02:03:51;14.70;;;7.77;;
3637;SDS011;1835;50.068;8.154;2022-10-22T02:06:26;14.10;;;4.97;;
3637;SDS011;1835;50.068;8.154;2022-10-22T02:08:57;8.90;;;5.80;;
3637;SDS011;1835;50.068;8.154;2022-10-22T02:11:27;14.03;;;6.77;;
3637;SDS011;1835;50.068;8.154;2022-10-22T02:13:56;15.10;;;6.23;;
3637;SDS011;1835;50.068;8.154;2022-10-22T02:16:30;10.47;;;5.73;;
3637;SDS011;1835;50.068;8.154;2022-10-22T02:19:05;9.57;;;4.00;;
3637;SDS011;1835;50.068;8.154;2022-10-22T02:21:39;5.80;;;4.03;;
3637;SDS011;1835;50.068;8.154;2022-10-22T02:24:08;5.03;;;4.10;;
3637;SDS011;1835;50.068;8.154;2022-10-22T02:26:38;4.40;;;3.70;;
3637;SDS011;1835;50.068;8.154;2022-10-22T02:29:12;8.47;;;3.63;;
3637;SDS011;1835;50.068;8.154;2022-10-22T02:31:46;9.17;;;3.43;;
3637;SDS011;1835;50.068;8.154;2022-10-22T02:34:17;9.43;;;3.00;;
3637;SDS011;1835;50.068;8.154;2022-10-22T02:36:49;4.23;;;3.83;;
3637;SDS011;1835;50.068;8.154;2022-10-22T02:39:18;3.60;;;3.10;;
3637;SDS011;1835;50.068;8.154;2022-10-22T02:41:47;2.57;;;2.37;;
3637;SDS011;1835;50.068;8.154;2022-10-22T02:44:18;5.57;;;2.80;;
3637;SDS011;1835;50.068;8.154;2022-10-22T02:46:49;7.37;;;3.10;;
3637;SDS011;1835;50.068;8.154;2022-10-22T02:49:17;3.63;;;2.13;;
3637;SDS011;1835;50.068;8.154;2022-10-22T02:51:45;8.10;;;2.93;;
3637;SDS011;1835;50.068;8.154;2022-10-22T02:54:13;4.07;;;3.00;;
3637;SDS011;1835;50.068;8.154;2022-10-22T02:56:41;6.13;;;2.03;;
3637;SDS011;1835;50.068;8.154;2022-10-22T02:59:09;3.87;;;2.60;;
3637;SDS011;1835;50.068;8.154;2022-10-22T03:01:37;12.53;;;2.53;;
3637;SDS011;1835;50.068;8.154;2022-10-22T03:04:07;15.33;;;2.73;;
3637;SDS011;1835;50.068;8.154;2022-10-22T03:06:35;15.00;;;3.00;;
3637;SDS011;1835;50.068;8.154;2022-10-22T03:09:03;10.97;;;3.07;;
3637;SDS011;1835;50.068;8.154;2022-10-22T03:11:31;7.77;;;3.30;;
3637;SDS011;1835;50.068;8.154;2022-10-22T03:13:59;5.77;;;3.03;;
3637;SDS011;1835;50.068;8.154;2022-10-22T03:16:27;7.40;;;2.53;;
3637;SDS011;1835;50.068;8.154;2022-10-22T03:18:55;6.93;;;2.90;;
3637;SDS011;1835;50.068;8.154;2022-10-22T03:21:25;8.07;;;2.40;;
3637;SDS011;1835;50.068;8.154;2022-10-22T03:23:59;4.73;;;2.60;;
3637;SDS011;1835;50.068;8.154;2022-10-22T03:26:29;16.17;;;2.60;;
3637;SDS011;1835;50.068;8.154;2022-10-22T03:28:58;6.10;;;2.40;;
3637;SDS011;1835;50.068;8.154;2022-10-22T03:31:29;4.87;;;2.60;;
3637;SDS011;1835;50.068;8.154;2022-10-22T03:33:57;7.67;;;2.60;;
3637;SDS011;1835;50.068;8.154;2022-10-22T03:36:26;10.47;;;3.20;;
3637;SDS011;1835;50.068;8.154;2022-10-22T03:38:54;6.23;;;2.53;;
3637;SDS011;1835;50.068;8.154;2022-10-22T03:41:22;7.60;;;2.60;;
3637;SDS011;1835;50.068;8.154;2022-10-22T03:43:50;4.30;;;2.00;;
3637;SDS011;1835;50.068;8.154;2022-10-22T03:46:19;16.13;;;3.13;;
3637;SDS011;1835;50.068;8.154;2022-10-22T03:48:47;11.40;;;2.80;;
3637;SDS011;1835;50.068;8.154;2022-10-22T03:51:15;18.93;;;2.97;;
3637;SDS011;1835;50.068;8.154;2022-10-22T03:53:44;7.27;;;2.30;;
3637;SDS011;1835;50.068;8.154;2022-10-22T03:56:12;13.60;;;2.77;;
3637;SDS011;1835;50.068;8.154;2022-10-22T03:58:40;6.20;;;2.67;;
3637;SDS011;1835;50.068;8.154;2022-10-22T04:01:09;6.10;;;2.93;;
3637;SDS011;1835;50.068;8.154;2022-10-22T04:03:39;10.23;;;2.50;;
3637;SDS011;1835;50.068;8.154;2022-10-22T04:06:09;10.00;;;3.90;;
3637;SDS011;1835;50.068;8.154;2022-10-22T04:08:39;8.80;;;3.07;;
3637;SDS011;1835;50.068;8.154;2022-10-22T04:11:10;13.93;;;3.00;;
3637;SDS011;1835;50.068;8.154;2022-10-22T04:13:40;8.10;;;2.63;;
3637;SDS011;1835;50.068;8.154;2022-10-22T04:16:09;4.90;;;2.60;;
3637;SDS011;1835;50.068;8.154;2022-10-22T04:18:41;9.80;;;2.23;;
3637;SDS011;1835;50.068;8.154;2022-10-22T04:21:11;11.27;;;2.73;;
3637;SDS011;1835;50.068;8.154;2022-10-22T04:23:44;8.17;;;2.50;;
3637;SDS011;1835;50.068;8.154;2022-10-22T04:26:14;12.57;;;3.23;;
3637;SDS011;1835;50.068;8.154;2022-10-22T04:28:44;15.33;;;3.33;;
3637;SDS011;1835;50.068;8.154;2022-10-22T04:31:13;3.40;;;3.00;;
3637;SDS011;1835;50.068;8.154;2022-10-22T04:33:44;6.00;;;2.60;;
3637;SDS011;1835;50.068;8.154;2022-10-22T04:36:13;8.93;;;2.80;;
3637;SDS011;1835;50.068;8.154;2022-10-22T04:38:46;3.57;;;2.40;;
3637;SDS011;1835;50.068;8.154;2022-10-22T04:41:21;9.70;;;2.80;;
3637;SDS011;1835;50.068;8.154;2022-10-22T04:43:51;2.73;;;2.50;;
3637;SDS011;1835;50.068;8.154;2022-10-22T04:46:20;17.97;;;3.00;;
3637;SDS011;1835;50.068;8.154;2022-10-22T04:48:49;6.63;;;2.13;;
3637;SDS011;1835;50.068;8.154;2022-10-22T04:51:19;10.63;;;2.30;;
3637;SDS011;1835;50.068;8.154;2022-10-22T04:53:49;1.77;;;1.67;;
3637;SDS011;1835;50.068;8.154;2022-10-22T04:56:18;5.80;;;2.10;;
3637;SDS011;1835;50.068;8.154;2022-10-22T04:58:51;3.53;;;2.27;;
3637;SDS011;1835;50.068;8.154;2022-10-22T05:01:21;7.37;;;2.47;;
3637;SDS011;1835;50.068;8.154;2022-10-22T05:03:52;8.70;;;2.27;;
3637;SDS011;1835;50.068;8.154;2022-10-22T05:06:22;3.33;;;2.00;;
3637;SDS011;1835;50.068;8.154;2022-10-22T05:08:52;12.27;;;2.83;;
3637;SDS011;1835;50.068;8.154;2022-10-22T05:11:24;7.03;;;1.97;;
3637;SDS011;1835;50.068;8.154;2022-10-22T05:13:54;5.50;;;1.70;;
3637;SDS011;1835;50.068;8.154;2022-10-22T05:16:23;4.30;;;1.60;;
3637;SDS011;1835;50.068;8.154;2022-10-22T05:18:52;2.07;;;1.63;;
3637;SDS011;1835;50.068;8.154;2022-10-22T05:21:20;4.20;;;1.60;;
3637;SDS011;1835;50.068;8.154;2022-10-22T05:23:48;2.20;;;1.60;;
3637;SDS011;1835;50.068;8.154;2022-10-22T05:26:18;5.67;;;1.90;;
3637;SDS011;1835;50.068;8.154;2022-10-22T05:28:49;4.33;;;1.30;;
3637;SDS011;1835;50.068;8.154;2022-10-22T05:31:18;10.97;;;1.60;;
3637;SDS011;1835;50.068;8.154;2022-10-22T05:33:47;7.00;;;1.73;;
3637;SDS011;1835;50.068;8.154;2022-10-22T05:36:15;9.93;;;1.43;;
3637;SDS011;1835;50.068;8.154;2022-10-22T05:38:45;6.30;;;1.50;;
3637;SDS011;1835;50.068;8.154;2022-10-22T05:41:14;14.30;;;1.60;;
3637;SDS011;1835;50.068;8.154;2022-10-22T05:43:44;4.20;;;1.50;;
3637;SDS011;1835;50.068;8.154;2022-10-22T05:46:15;4.37;;;1.80;;
3637;SDS011;1835;50.068;8.154;2022-10-22T05:48:48;13.73;;;2.07;;
3637;SDS011;1835;50.068;8.154;2022-10-22T05:51:16;4.00;;;1.57;;
3637;SDS011;1835;50.068;8.154;2022-10-22T05:53:45;4.50;;;1.70;;
3637;SDS011;1835;50.068;8.154;2022-10-22T05:56:17;5.73;;;1.90;;
3637;SDS011;1835;50.068;8.154;2022-10-22T05:58:45;11.63;;;1.67;;
3637;SDS011;1835;50.068;8.154;2022-10-22T06:01:16;6.03;;;2.33;;
3637;SDS011;1835;50.068;8.154;2022-10-22T06:03:47;1.70;;;1.60;;
3637;SDS011;1835;50.068;8.154;2022-10-22T06:06:17;1.53;;;1.43;;
3637;SDS011;1835;50.068;8.154;2022-10-22T06:08:48;12.17;;;1.90;;
3637;SDS011;1835;50.068;8.154;2022-10-22T06:11:18;4.27;;;1.70;;
3637;SDS011;1835;50.068;8.154;2022-10-22T06:13:48;4.40;;;1.97;;
3637;SDS011;1835;50.068;8.154;2022-10-22T06:16:18;2.03;;;1.80;;
3637;SDS011;1835;50.068;8.154;2022-10-22T06:18:46;2.23;;;1.70;;
3637;SDS011;1835;50.068;8.154;2022-10-22T06:21:14;5.33;;;3.77;;
3637;SDS011;1835;50.068;8.154;2022-10-22T06:23:43;1.73;;;1.50;;
3637;SDS011;1835;50.068;8.154;2022-10-22T06:26:11;5.70;;;2.10;;
3637;SDS011;1835;50.068;8.154;2022-10-22T06:28:40;4.80;;;1.80;;
3637;SDS011;1835;50.068;8.154;2022-10-22T06:31:08;8.50;;;1.63;;
3637;SDS011;1835;50.068;8.154;2022-10-22T06:33:38;3.70;;;2.20;;
3637;SDS011;1835;50.068;8.154;2022-10-22T06:36:08;7.90;;;1.73;;
3637;SDS011;1835;50.068;8.154;2022-10-22T06:38:39;3.90;;;1.73;;
3637;SDS011;1835;50.068;8.154;2022-10-22T06:41:08;3.17;;;1.60;;
3637;SDS011;1835;50.068;8.154;2022-10-22T06:43:38;9.97;;;1.97;;
3637;SDS011;1835;50.068;8.154;2022-10-22T06:46:07;1.57;;;1.50;;
3637;SDS011;1835;50.068;8.154;2022-10-22T06:48:46;6.13;;;1.40;;
3637;SDS011;1835;50.068;8.154;2022-10-22T06:51:16;10.90;;;2.13;;
3637;SDS011;1835;50.068;8.154;2022-10-22T06:53:44;4.50;;;1.90;;
3637;SDS011;1835;50.068;8.154;2022-10-22T06:56:13;4.87;;;1.63;;
3637;SDS011;1835;50.068;8.154;2022-10-22T06:58:45;4.60;;;1.50;;
3637;SDS011;1835;50.068;8.154;2022-10-22T07:01:14;2.87;;;1.80;;
3637;SDS011;1835;50.068;8.154;2022-10-22T07:03:45;2.50;;;1.40;;
3637;SDS011;1835;50.068;8.154;2022-10-22T07:06:13;1.60;;;1.40;;
3637;SDS011;1835;50.068;8.154;2022-10-22T07:08:42;6.23;;;1.30;;
3637;SDS011;1835;50.068;8.154;2022-10-22T07:11:11;4.83;;;1.30;;
3637;SDS011;1835;50.068;8.154;2022-10-22T07:13:41;3.97;;;1.17;;
3637;SDS011;1835;50.068;8.154;2022-10-22T07:16:09;4.77;;;3.53;;
3637;SDS011;1835;50.068;8.154;2022-10-22T07:18:39;1.50;;;1.40;;
3637;SDS011;1835;50.068;8.154;2022-10-22T07:21:10;5.83;;;1.77;;
3637;SDS011;1835;50.068;8.154;2022-10-22T07:23:39;1.83;;;1.73;;
3637;SDS011;1835;50.068;8.154;2022-10-22T07:26:08;8.03;;;1.10;;
3637;SDS011;1835;50.068;8.154;2022-10-22T07:28:39;1.20;;;1.10;;
3637;SDS011;1835;50.068;8.154;2022-10-22T07:31:08;2.40;;;2.20;;
3637;SDS011;1835;50.068;8.154;2022-10-22T07:33:38;5.13;;;2.10;;
3637;SDS011;1835;50.068;8.154;2022-10-22T07:36:08;4.13;;;1.70;;
3637;SDS011;1835;50.068;8.154;2022-10-22T07:38:44;3.37;;;1.60;;
3637;SDS011;1835;50.068;8.154;2022-10-22T07:41:13;5.50;;;1.50;;
3637;SDS011;1835;50.068;8.154;2022-10-22T07:43:41;1.83;;;1.67;;
3637;SDS011;1835;50.068;8.154;2022-10-22T07:46:10;6.47;;;1.17;;
3637;SDS011;1835;50.068;8.154;2022-10-22T07:48:38;1.53;;;1.23;;
3637;SDS011;1835;50.068;8.154;2022-10-22T07:51:06;2.40;;;1.40;;
3637;SDS011;1835;50.068;8.154;2022-10-22T07:53:36;0.93;;;0.93;;
3637;SDS011;1835;50.068;8.154;2022-10-22T07:56:04;1.57;;;1.30;;
3637;SDS011;1835;50.068;8.154;2022-10-22T07:58:33;1.73;;;0.70;;
3637;SDS011;1835;50.068;8.154;2022-10-22T08:01:02;2.20;;;1.00;;
3637;SDS011;1835;50.068;8.154;2022-10-22T08:03:32;2.07;;;1.17;;
3637;SDS011;1835;50.068;8.154;2022-10-22T08:06:00;3.03;;;1.00;;
3637;SDS011;1835;50.068;8.154;2022-10-22T08:08:29;4.43;;;1.60;;
3637;SDS011;1835;50.068;8.154;2022-10-22T08:10:59;3.07;;;1.50;;
3637;SDS011;1835;50.068;8.154;2022-10-22T08:13:28;2.97;;;1.10;;
3637;SDS011;1835;50.068;8.154;2022-10-22T08:15:57;3.70;;;0.80;;
3637;SDS011;1835;50.068;8.154;2022-10-22T08:18:26;1.43;;;1.07;;
3637;SDS011;1835;50.068;8.154;2022-10-22T08:20:55;1.10;;;0.97;;
3637;SDS011;1835;50.068;8.154;2022-10-22T08:23:23;3.33;;;1.30;;
3637;SDS011;1835;50.068;8.154;2022-10-22T08:25:54;4.20;;;1.00;;
3637;SDS011;1835;50.068;8.154;2022-10-22T08:28:24;5.13;;;1.73;;
3637;SDS011;1835;50.068;8.154;2022-10-22T08:30:56;3.20;;;1.07;;
3637;SDS011;1835;50.068;8.154;2022-10-22T08:33:27;3.37;;;1.10;;
3637;SDS011;1835;50.068;8.154;2022-10-22T08:35:55;7.27;;;1.53;;
3637;SDS011;1835;50.068;8.154;2022-10-22T08:38:23;2.03;;;1.13;;
3637;SDS011;1835;50.068;8.154;2022-10-22T08:40:52;4.70;;;1.20;;
3637;SDS011;1835;50.068;8.154;2022-10-22T08:46:59;3.90;;;1.80;;
3637;SDS011;1835;50.068;8.154;2022-10-22T08:49:54;7.93;;;1.20;;
3637;SDS011;1835;50.068;8.154;2022-10-22T08:52:22;5.00;;;1.30;;
3637;SDS011;1835;50.068;8.154;2022-10-22T08:54:51;3.40;;;0.93;;
3637;SDS011;1835;50.068;8.154;2022-10-22T08:57:23;2.20;;;0.80;;
3637;SDS011;1835;50.068;8.154;2022-10-22T09:00:10;0.73;;;0.73;;
3637;SDS011;1835;50.068;8.154;2022-10-22T09:02:47;1.87;;;0.80;;
3637;SDS011;1835;50.068;8.154;2022-10-22T09:05:32;2.70;;;1.17;;
3637;SDS011;1835;50.068;8.154;2022-10-22T09:08:10;9.90;;;1.27;;
3637;SDS011;1835;50.068;8.154;2022-10-22T09:10:39;0.60;;;0.60;;
3637;SDS011;1835;50.068;8.154;2022-10-22T09:13:15;4.53;;;1.13;;
3637;SDS011;1835;50.068;8.154;2022-10-22T09:15:47;3.33;;;1.00;;
3637;SDS011;1835;50.068;8.154;2022-10-22T09:18:25;1.90;;;0.70;;
3637;SDS011;1835;50.068;8.154;2022-10-22T09:21:05;1.57;;;0.87;;
3637;SDS011;1835;50.068;8.154;2022-10-22T09:23:48;4.23;;;0.80;;
3637;SDS011;1835;50.068;8.154;2022-10-22T09:26:27;3.70;;;0.90;;
3637;SDS011;1835;50.068;8.154;2022-10-22T09:28:58;3.57;;;0.90;;
3637;SDS011;1835;50.068;8.154;2022-10-22T09:31:28;1.63;;;0.80;;
3637;SDS011;1835;50.068;8.154;2022-10-22T09:34:00;0.80;;;0.73;;
3637;SDS011;1835;50.068;8.154;2022-10-22T09:36:32;3.30;;;1.10;;
3637;SDS011;1835;50.068;8.154;2022-10-22T09:39:02;3.40;;;1.07;;
3637;SDS011;1835;50.068;8.154;2022-10-22T09:41:30;3.70;;;0.97;;
3637;SDS011;1835;50.068;8.154;2022-10-22T09:43:59;3.70;;;0.57;;
3637;SDS011;1835;50.068;8.154;2022-10-22T09:46:27;0.70;;;0.70;;
3637;SDS011;1835;50.068;8.154;2022-10-22T09:49:02;1.00;;;0.80;;
3637;SDS011;1835;50.068;8.154;2022-10-22T09:51:39;1.10;;;1.00;;
3637;SDS011;1835;50.068;8.154;2022-10-22T09:54:18;4.07;;;0.97;;
3637;SDS011;1835;50.068;8.154;2022-10-22T09:56:50;1.50;;;0.73;;
3637;SDS011;1835;50.068;8.154;2022-10-22T09:59:29;7.67;;;1.10;;
3637;SDS011;1835;50.068;8.154;2022-10-22T10:02:00;11.43;;;0.93;;
3637;SDS011;1835;50.068;8.154;2022-10-22T10:04:53;2.00;;;0.80;;
3637;SDS011;1835;50.068;8.154;2022-10-22T10:07:24;4.70;;;0.90;;
3637;SDS011;1835;50.068;8.154;2022-10-22T10:09:55;2.40;;;0.80;;
3637;SDS011;1835;50.068;8.154;2022-10-22T10:12:30;1.87;;;1.00;;
3637;SDS011;1835;50.068;8.154;2022-10-22T10:15:11;6.10;;;0.80;;
3637;SDS011;1835;50.068;8.154;2022-10-22T10:17:48;1.80;;;0.83;;
3637;SDS011;1835;50.068;8.154;2022-10-22T10:20:26;0.90;;;0.80;;
3637;SDS011;1835;50.068;8.154;2022-10-22T10:23:02;1.80;;;0.77;;
3637;SDS011;1835;50.068;8.154;2022-10-22T10:25:43;2.27;;;0.77;;
3637;SDS011;1835;50.068;8.154;2022-10-22T10:28:24;1.47;;;0.77;;
3637;SDS011;1835;50.068;8.154;2022-10-22T10:31:16;0.80;;;0.80;;
3637;SDS011;1835;50.068;8.154;2022-10-22T10:33:58;1.63;;;0.70;;
3637;SDS011;1835;50.068;8.154;2022-10-22T10:36:39;3.93;;;1.00;;
3637;SDS011;1835;50.068;8.154;2022-10-22T10:39:18;2.30;;;1.20;;
3637;SDS011;1835;50.068;8.154;2022-10-22T10:41:57;3.43;;;0.80;;
3637;SDS011;1835;50.068;8.154;2022-10-22T10:44:46;6.23;;;0.90;;
3637;SDS011;1835;50.068;8.154;2022-10-22T10:50:42;1.83;;;1.07;;
3637;SDS011;1835;50.068;8.154;2022-10-22T10:53:25;1.00;;;0.90;;
3637;SDS011;1835;50.068;8.154;2022-10-22T10:56:21;2.70;;;1.13;;
3637;SDS011;1835;50.068;8.154;2022-10-22T10:59:09;4.20;;;0.80;;
3637;SDS011;1835;50.068;8.154;2022-10-22T11:02:01;45.20;;;1.90;;
3637;SDS011;1835;50.068;8.154;2022-10-22T11:08:06;1.07;;;0.97;;
3637;SDS011;1835;50.068;8.154;2022-10-22T11:10:43;2.20;;;1.17;;
3637;SDS011;1835;50.068;8.154;2022-10-22T11:13:17;4.00;;;1.33;;
3637;SDS011;1835;50.068;8.154;2022-10-22T11:15:50;2.13;;;0.90;;
3637;SDS011;1835;50.068;8.154;2022-10-22T11:18:26;5.07;;;1.20;;
3637;SDS011;1835;50.068;8.154;2022-10-22T11:21:02;3.80;;;0.97;;
3637;SDS011;1835;50.068;8.154;2022-10-22T11:23:40;2.60;;;1.00;;
3637;SDS011;1835;50.068;8.154;2022-10-22T11:26:16;2.60;;;0.90;;
3637;SDS011;1835;50.068;8.154;2022-10-22T11:28:53;1.13;;;0.70;;
3637;SDS011;1835;50.068;8.154;2022-10-22T11:31:26;3.27;;;1.00;;
3637;SDS011;1835;50.068;8.154;2022-10-22T11:33:59;2.43;;;1.00;;
3637;SDS011;1835;50.068;8.154;2022-10-22T11:36:53;2.80;;;0.90;;
3637;SDS011;1835;50.068;8.154;2022-10-22T11:39:26;1.17;;;0.90;;
3637;SDS011;1835;50.068;8.154;2022-10-22T11:42:05;9.60;;;1.47;;
3637;SDS011;1835;50.068;8.154;2022-10-22T11:44:47;3.80;;;1.00;;
3637;SDS011;1835;50.068;8.154;2022-10-22T11:47:26;10.97;;;1.10;;
3637;SDS011;1835;50.068;8.154;2022-10-22T11:49:59;3.63;;;0.73;;
3637;SDS011;1835;50.068;8.154;2022-10-22T11:52:48;3.73;;;0.80;;
3637;SDS011;1835;50.068;8.154;2022-10-22T11:55:30;3.00;;;1.00;;
3637;SDS011;1835;50.068;8.154;2022-10-22T11:58:30;2.93;;;1.10;;
3637;SDS011;1835;50.068;8.154;2022-10-22T12:01:22;8.53;;;1.00;;
3637;SDS011;1835;50.068;8.154;2022-10-22T12:06:51;3.90;;;1.00;;
3637;SDS011;1835;50.068;8.154;2022-10-22T12:09:29;1.80;;;1.30;;
3637;SDS011;1835;50.068;8.154;2022-10-22T12:12:08;1.53;;;1.10;;
3637;SDS011;1835;50.068;8.154;2022-10-22T12:14:52;6.00;;;0.90;;
3637;SDS011;1835;50.068;8.154;2022-10-22T12:17:22;11.87;;;1.17;;
3637;SDS011;1835;50.068;8.154;2022-10-22T12:19:53;3.30;;;0.97;;
3637;SDS011;1835;50.068;8.154;2022-10-22T12:22:28;1.63;;;1.20;;
3637;SDS011;1835;50.068;8.154;2022-10-22T12:24:59;4.13;;;0.97;;
3637;SDS011;1835;50.068;8.154;2022-10-22T12:27:33;5.70;;;1.20;;
3637;SDS011;1835;50.068;8.154;2022-10-22T12:30:15;6.83;;;1.23;;
3637;SDS011;1835;50.068;8.154;2022-10-22T12:32:46;3.00;;;0.87;;
3637;SDS011;1835;50.068;8.154;2022-10-22T12:35:16;2.13;;;1.00;;
3637;SDS011;1835;50.068;8.154;2022-10-22T12:37:48;1.80;;;1.20;;
3637;SDS011;1835;50.068;8.154;2022-10-22T12:40:18;1.37;;;0.70;;
3637;SDS011;1835;50.068;8.154;2022-10-22T12:42:52;4.63;;;1.33;;
3637;SDS011;1835;50.068;8.154;2022-10-22T12:45:24;3.70;;;1.50;;
3637;SDS011;1835;50.068;8.154;2022-10-22T12:47:54;4.83;;;1.10;;
3637;SDS011;1835;50.068;8.154;2022-10-22T12:50:28;9.07;;;1.10;;
3637;SDS011;1835;50.068;8.154;2022-10-22T12:53:03;6.23;;;1.40;;
3637;SDS011;1835;50.068;8.154;2022-10-22T12:55:32;1.50;;;1.00;;
3637;SDS011;1835;50.068;8.154;2022-10-22T12:58:03;16.20;;;1.57;;
3637;SDS011;1835;50.068;8.154;2022-10-22T13:00:34;2.43;;;0.80;;
3637;SDS011;1835;50.068;8.154;2022-10-22T13:03:04;2.80;;;1.30;;
3637;SDS011;1835;50.068;8.154;2022-10-22T13:05:33;5.33;;;1.13;;
3637;SDS011;1835;50.068;8.154;2022-10-22T13:08:07;7.30;;;1.57;;
3637;SDS011;1835;50.068;8.154;2022-10-22T13:10:38;4.50;;;1.20;;
3637;SDS011;1835;50.068;8.154;2022-10-22T13:16:13;3.07;;;1.30;;
3637;SDS011;1835;50.068;8.154;2022-10-22T13:18:43;10.73;;;0.90;;
3637;SDS011;1835;50.068;8.154;2022-10-22T13:21:28;7.87;;;2.43;;
3637;SDS011;1835;50.068;8.154;2022-10-22T13:24:01;6.33;;;2.80;;
3637;SDS011;1835;50.068;8.154;2022-10-22T13:26:46;10.37;;;6.43;;
3637;SDS011;1835;50.068;8.154;2022-10-22T13:29:17;22.37;;;10.90;;
3637;SDS011;1835;50.068;8.154;2022-10-22T13:31:51;61.53;;;26.67;;
3637;SDS011;1835;50.068;8.154;2022-10-22T13:34:20;13.73;;;6.53;;
3637;SDS011;1835;50.068;8.154;2022-10-22T13:36:50;2.43;;;1.97;;
3637;SDS011;1835;50.068;8.154;2022-10-22T13:39:20;2.63;;;1.70;;
3637;SDS011;1835;50.068;8.154;2022-10-22T13:41:50;3.27;;;1.00;;
3637;SDS011;1835;50.068;8.154;2022-10-22T13:44:18;2.17;;;1.23;;
3637;SDS011;1835;50.068;8.154;2022-10-22T13:46:46;3.43;;;2.00;;
3637;SDS011;1835;50.068;8.154;2022-10-22T13:49:17;9.37;;;1.43;;
3637;SDS011;1835;50.068;8.154;2022-10-22T13:51:48;5.13;;;1.27;;
3637;SDS011;1835;50.068;8.154;2022-10-22T13:54:18;4.53;;;1.07;;
3637;SDS011;1835;50.068;8.154;2022-10-22T13:56:49;3.40;;;1.13;;
3637;SDS011;1835;50.068;8.154;2022-10-22T13:59:17;4.80;;;1.10;;
3637;SDS011;1835;50.068;8.154;2022-10-22T14:01:49;6.17;;;3.20;;
3637;SDS011;1835;50.068;8.154;2022-10-22T14:04:18;8.90;;;1.83;;
3637;SDS011;1835;50.068;8.154;2022-10-22T14:06:46;9.23;;;1.20;;
3637;SDS011;1835;50.068;8.154;2022-10-22T14:09:14;11.33;;;2.80;;
3637;SDS011;1835;50.068;8.154;2022-10-22T14:11:48;2.70;;;1.23;;
3637;SDS011;1835;50.068;8.154;2022-10-22T14:14:16;12.70;;;1.33;;
3637;SDS011;1835;50.068;8.154;2022-10-22T14:16:44;4.20;;;1.10;;
3637;SDS011;1835;50.068;8.154;2022-10-22T14:19:13;11.80;;;2.17;;
3637;SDS011;1835;50.068;8.154;2022-10-22T14:21:44;4.53;;;1.47;;
3637;SDS011;1835;50.068;8.154;2022-10-22T14:24:14;2.30;;;0.93;;
3637;SDS011;1835;50.068;8.154;2022-10-22T14:26:42;5.60;;;1.63;;
3637;SDS011;1835;50.068;8.154;2022-10-22T14:29:10;5.40;;;1.80;;
3637;SDS011;1835;50.068;8.154;2022-10-22T14:31:38;1.73;;;1.30;;
3637;SDS011;1835;50.068;8.154;2022-10-22T14:34:10;1.83;;;1.17;;
3637;SDS011;1835;50.068;8.154;2022-10-22T14:36:40;6.33;;;3.07;;
3637;SDS011;1835;50.068;8.154;2022-10-22T14:39:11;4.17;;;1.63;;
3637;SDS011;1835;50.068;8.154;2022-10-22T14:41:39;1.87;;;1.57;;
3637;SDS011;1835;50.068;8.154;2022-10-22T14:44:08;3.33;;;1.30;;
3637;SDS011;1835;50.068;8.154;2022-10-22T14:46:39;14.13;;;2.20;;
3637;SDS011;1835;50.068;8.154;2022-10-22T14:49:09;6.57;;;3.03;;
3637;SDS011;1835;50.068;8.154;2022-10-22T14:51:37;4.57;;;3.00;;
3637;SDS011;1835;50.068;8.154;2022-10-22T14:54:05;11.17;;;7.53;;
3637;SDS011;1835;50.068;8.154;2022-10-22T14:56:34;10.47;;;5.13;;
3637;SDS011;1835;50.068;8.154;2022-10-22T14:59:07;4.03;;;1.83;;
3637;SDS011;1835;50.068;8.154;2022-10-22T15:01:36;6.30;;;1.53;;
3637;SDS011;1835;50.068;8.154;2022-10-22T15:04:05;5.60;;;2.37;;
3637;SDS011;1835;50.068;8.154;2022-10-22T15:06:33;9.23;;;2.50;;
3637;SDS011;1835;50.068;8.154;2022-10-22T15:09:02;4.40;;;1.87;;
3637;SDS011;1835;50.068;8.154;2022-10-22T15:11:30;7.23;;;1.63;;
3637;SDS011;1835;50.068;8.154;2022-10-22T15:14:02;9.00;;;4.37;;
3637;SDS011;1835;50.068;8.154;2022-10-22T16:34:52;15.30;;;2.00;;
3637;SDS011;1835;50.068;8.154;2022-10-22T16:37:20;23.43;;;2.57;;
3637;SDS011;1835;50.068;8.154;2022-10-22T16:39:48;7.37;;;2.73;;
3637;SDS011;1835;50.068;8.154;2022-10-22T16:42:16;13.10;;;3.30;;
3637;SDS011;1835;50.068;8.154;2022-10-22T16:44:44;28.10;;;4.53;;
3637;SDS011;1835;50.068;8.154;2022-10-22T16:47:12;7.87;;;1.70;;
3637;SDS011;1835;50.068;8.154;2022-10-22T16:49:40;24.93;;;5.07;;
3637;SDS011;1835;50.068;8.154;2022-10-22T16:52:09;18.63;;;5.10;;
3637;SDS011;1835;50.068;8.154;2022-10-22T16:54:37;13.17;;;3.53;;
3637;SDS011;1835;50.068;8.154;2022-10-22T16:57:05;10.83;;;3.13;;
3637;SDS011;1835;50.068;8.154;2022-10-22T16:59:33;17.13;;;3.77;;
3637;SDS011;1835;50.068;8.154;2022-10-22T17:02:02;22.57;;;3.40;;
3637;SDS011;1835;50.068;8.154;2022-10-22T17:04:32;15.80;;;3.23;;
3637;SDS011;1835;50.068;8.154;2022-10-22T17:07:00;12.00;;;2.27;;
3637;SDS011;1835;50.068;8.154;2022-10-22T17:09:30;18.80;;;2.40;;
3637;SDS011;1835;50.068;8.154;2022-10-22T17:11:58;7.67;;;2.30;;
3637;SDS011;1835;50.068;8.154;2022-10-22T17:14:26;18.50;;;3.23;;